Terminal Aerodrome Forecast
Issued by NWS Cleveland, OH

Home | Current Version | Previous Version | Graphics & Text | Print | Product List | Glossary On
Versions: 1 2 3 4 5 6 7 8 9 10 11 12 13 14 15 16 17 18 19
000
FTUS41 KCLE 030206 AAA
TAFERI
TAF AMD
KERI 030206Z 0302/0324 19015G25KT P6SM SCT100
     FM030300 20012G22KT P6SM BKN100
      TEMPO 0306/0308 29015G30KT 2SM TSRA OVC025CB
     FM031500 27012KT P6SM BKN035
      TEMPO 0315/0319 BKN025=

USA.gov is the U.S. government's official web portal to all federal, state and local government web resources and services.